sensor_id;sensor_type;location;lat;lon;timestamp;temperature;humidity
27162;DHT22;54464;50.558;9.704;2024-03-29T00:01:17;7.20;99.90
27162;DHT22;54464;50.558;9.704;2024-03-29T00:03:42;7.30;99.90
27162;DHT22;54464;50.558;9.704;2024-03-29T00:06:08;7.40;99.90
27162;DHT22;54464;50.558;9.704;2024-03-29T00:08:34;7.30;99.90
27162;DHT22;54464;50.558;9.704;2024-03-29T00:10:59;7.30;99.90
27162;DHT22;54464;50.558;9.704;2024-03-29T00:13:25;7.30;99.90
27162;DHT22;54464;50.558;9.704;2024-03-29T00:15:50;7.40;99.90
27162;DHT22;54464;50.558;9.704;2024-03-29T00:18:16;7.30;99.90
27162;DHT22;54464;50.558;9.704;2024-03-29T00:20:42;7.30;99.90
27162;DHT22;54464;50.558;9.704;2024-03-29T00:23:07;7.40;99.90
27162;DHT22;54464;50.558;9.704;2024-03-29T00:25:33;7.30;99.90
27162;DHT22;54464;50.558;9.704;2024-03-29T00:27:58;7.20;99.90
27162;DHT22;54464;50.558;9.704;2024-03-29T00:30:24;7.20;99.90
27162;DHT22;54464;50.558;9.704;2024-03-29T00:32:49;7.20;99.90
27162;DHT22;54464;50.558;9.704;2024-03-29T00:35:15;7.30;99.90
27162;DHT22;54464;50.558;9.704;2024-03-29T00:37:41;7.30;99.90
27162;DHT22;54464;50.558;9.704;2024-03-29T00:40:07;7.30;99.90
27162;DHT22;54464;50.558;9.704;2024-03-29T00:42:32;7.30;99.90
27162;DHT22;54464;50.558;9.704;2024-03-29T00:44:58;7.30;99.90
27162;DHT22;54464;50.558;9.704;2024-03-29T00:47:23;7.20;99.90
27162;DHT22;54464;50.558;9.704;2024-03-29T00:49:49;7.20;99.90
27162;DHT22;54464;50.558;9.704;2024-03-29T00:52:14;7.30;99.90
27162;DHT22;54464;50.558;9.704;2024-03-29T00:54:40;7.30;99.90
27162;DHT22;54464;50.558;9.704;2024-03-29T00:57:05;7.20;99.90
27162;DHT22;54464;50.558;9.704;2024-03-29T00:59:37;7.20;99.90
27162;DHT22;54464;50.558;9.704;2024-03-29T01:02:03;7.30;99.90
27162;DHT22;54464;50.558;9.704;2024-03-29T01:04:29;7.30;99.90
27162;DHT22;54464;50.558;9.704;2024-03-29T01:06:57;7.30;99.90
27162;DHT22;54464;50.558;9.704;2024-03-29T01:09:23;7.30;99.90
27162;DHT22;54464;50.558;9.704;2024-03-29T01:11:50;7.30;99.90
27162;DHT22;54464;50.558;9.704;2024-03-29T01:14:16;7.30;99.90
27162;DHT22;54464;50.558;9.704;2024-03-29T01:16:41;7.30;99.90
27162;DHT22;54464;50.558;9.704;2024-03-29T01:19:07;7.40;99.90
27162;DHT22;54464;50.558;9.704;2024-03-29T01:21:35;7.40;99.90
27162;DHT22;54464;50.558;9.704;2024-03-29T01:24:01;7.30;99.90
27162;DHT22;54464;50.558;9.704;2024-03-29T01:26:27;7.40;99.90
27162;DHT22;54464;50.558;9.704;2024-03-29T01:28:52;7.30;99.90
27162;DHT22;54464;50.558;9.704;2024-03-29T01:31:18;7.30;99.90
27162;DHT22;54464;50.558;9.704;2024-03-29T01:33:43;7.30;99.90
27162;DHT22;54464;50.558;9.704;2024-03-29T01:36:09;7.30;99.90
27162;DHT22;54464;50.558;9.704;2024-03-29T01:38:34;7.40;99.90
27162;DHT22;54464;50.558;9.704;2024-03-29T01:41:00;7.50;99.90
27162;DHT22;54464;50.558;9.704;2024-03-29T01:43:26;7.50;99.90
27162;DHT22;54464;50.558;9.704;2024-03-29T01:45:55;7.50;99.90
27162;DHT22;54464;50.558;9.704;2024-03-29T01:48:22;7.50;99.90
27162;DHT22;54464;50.558;9.704;2024-03-29T01:50:49;7.50;99.90
27162;DHT22;54464;50.558;9.704;2024-03-29T01:53:16;7.50;99.90
27162;DHT22;54464;50.558;9.704;2024-03-29T01:55:43;7.50;99.90
27162;DHT22;54464;50.558;9.704;2024-03-29T01:58:09;7.40;99.90
27162;DHT22;54464;50.558;9.704;2024-03-29T02:00:42;7.50;99.90
27162;DHT22;54464;50.558;9.704;2024-03-29T02:03:09;7.40;99.90
27162;DHT22;54464;50.558;9.704;2024-03-29T02:05:42;7.40;99.90
27162;DHT22;54464;50.558;9.704;2024-03-29T02:08:08;7.40;99.90
27162;DHT22;54464;50.558;9.704;2024-03-29T02:10:36;7.50;99.90
27162;DHT22;54464;50.558;9.704;2024-03-29T02:13:02;7.40;99.90
27162;DHT22;54464;50.558;9.704;2024-03-29T02:15:29;7.40;99.90
27162;DHT22;54464;50.558;9.704;2024-03-29T02:17:54;7.50;99.90
27162;DHT22;54464;50.558;9.704;2024-03-29T02:20:20;7.50;99.90
27162;DHT22;54464;50.558;9.704;2024-03-29T02:23:02;7.60;99.90
27162;DHT22;54464;50.558;9.704;2024-03-29T02:25:31;7.60;99.90
27162;DHT22;54464;50.558;9.704;2024-03-29T02:27:57;7.60;99.90
27162;DHT22;54464;50.558;9.704;2024-03-29T02:30:23;7.70;99.90
27162;DHT22;54464;50.558;9.704;2024-03-29T02:32:50;7.70;99.90
27162;DHT22;54464;50.558;9.704;2024-03-29T02:35:15;7.70;99.90
27162;DHT22;54464;50.558;9.704;2024-03-29T02:37:41;7.70;99.90
27162;DHT22;54464;50.558;9.704;2024-03-29T02:40:07;7.90;99.90
27162;DHT22;54464;50.558;9.704;2024-03-29T02:42:34;8.00;99.90
27162;DHT22;54464;50.558;9.704;2024-03-29T02:45:04;7.90;99.90
27162;DHT22;54464;50.558;9.704;2024-03-29T02:47:30;8.00;99.90
27162;DHT22;54464;50.558;9.704;2024-03-29T02:49:55;8.00;99.90
27162;DHT22;54464;50.558;9.704;2024-03-29T02:52:21;8.10;99.90
27162;DHT22;54464;50.558;9.704;2024-03-29T02:54:46;8.00;99.90
27162;DHT22;54464;50.558;9.704;2024-03-29T02:57:12;7.90;99.90
27162;DHT22;54464;50.558;9.704;2024-03-29T02:59:39;7.90;99.90
27162;DHT22;54464;50.558;9.704;2024-03-29T03:02:05;7.90;99.90
27162;DHT22;54464;50.558;9.704;2024-03-29T03:04:31;7.90;99.90
27162;DHT22;54464;50.558;9.704;2024-03-29T03:06:56;8.30;99.90
27162;DHT22;54464;50.558;9.704;2024-03-29T03:09:42;8.40;99.90
27162;DHT22;54464;50.558;9.704;2024-03-29T03:12:29;8.30;99.90
27162;DHT22;54464;50.558;9.704;2024-03-29T03:14:59;8.30;99.90
27162;DHT22;54464;50.558;9.704;2024-03-29T03:17:28;8.30;99.90
27162;DHT22;54464;50.558;9.704;2024-03-29T03:19:54;8.30;99.90
27162;DHT22;54464;50.558;9.704;2024-03-29T03:22:19;8.30;99.90
27162;DHT22;54464;50.558;9.704;2024-03-29T03:24:45;8.30;99.90
27162;DHT22;54464;50.558;9.704;2024-03-29T03:27:11;8.40;99.90
27162;DHT22;54464;50.558;9.704;2024-03-29T03:29:37;8.40;99.90
27162;DHT22;54464;50.558;9.704;2024-03-29T03:32:03;8.40;99.90
27162;DHT22;54464;50.558;9.704;2024-03-29T03:34:29;8.30;99.90
27162;DHT22;54464;50.558;9.704;2024-03-29T03:36:54;8.30;99.90
27162;DHT22;54464;50.558;9.704;2024-03-29T03:39:22;8.30;99.90
27162;DHT22;54464;50.558;9.704;2024-03-29T03:41:48;8.20;99.90
27162;DHT22;54464;50.558;9.704;2024-03-29T03:44:13;8.20;99.90
27162;DHT22;54464;50.558;9.704;2024-03-29T03:46:39;8.30;99.90
27162;DHT22;54464;50.558;9.704;2024-03-29T03:49:04;8.40;99.90
27162;DHT22;54464;50.558;9.704;2024-03-29T03:51:30;8.50;99.90
27162;DHT22;54464;50.558;9.704;2024-03-29T03:53:56;8.40;99.90
27162;DHT22;54464;50.558;9.704;2024-03-29T03:56:21;8.50;99.90
27162;DHT22;54464;50.558;9.704;2024-03-29T03:58:47;8.50;99.90
27162;DHT22;54464;50.558;9.704;2024-03-29T04:01:12;8.50;99.90
27162;DHT22;54464;50.558;9.704;2024-03-29T04:03:38;8.60;99.90
27162;DHT22;54464;50.558;9.704;2024-03-29T04:06:05;8.50;99.90
27162;DHT22;54464;50.558;9.704;2024-03-29T04:08:31;8.40;99.90
27162;DHT22;54464;50.558;9.704;2024-03-29T04:10:57;8.40;99.90
27162;DHT22;54464;50.558;9.704;2024-03-29T04:13:23;8.40;99.90
27162;DHT22;54464;50.558;9.704;2024-03-29T04:15:48;8.20;99.90
27162;DHT22;54464;50.558;9.704;2024-03-29T04:18:14;8.00;99.90
27162;DHT22;54464;50.558;9.704;2024-03-29T04:20:40;7.80;99.90
27162;DHT22;54464;50.558;9.704;2024-03-29T04:23:06;7.60;99.90
27162;DHT22;54464;50.558;9.704;2024-03-29T04:25:32;7.50;99.90
27162;DHT22;54464;50.558;9.704;2024-03-29T04:27:58;7.30;99.90
27162;DHT22;54464;50.558;9.704;2024-03-29T04:30:24;7.30;99.90
27162;DHT22;54464;50.558;9.704;2024-03-29T04:32:50;7.20;99.90
27162;DHT22;54464;50.558;9.704;2024-03-29T04:35:15;7.20;99.90
27162;DHT22;54464;50.558;9.704;2024-03-29T04:37:41;7.20;99.90
27162;DHT22;54464;50.558;9.704;2024-03-29T04:40:07;7.30;99.90
27162;DHT22;54464;50.558;9.704;2024-03-29T04:42:32;7.30;99.90
27162;DHT22;54464;50.558;9.704;2024-03-29T04:44:58;7.30;99.90
27162;DHT22;54464;50.558;9.704;2024-03-29T04:47:23;7.30;99.90
27162;DHT22;54464;50.558;9.704;2024-03-29T04:49:49;7.30;99.90
27162;DHT22;54464;50.558;9.704;2024-03-29T04:52:14;7.30;99.90
27162;DHT22;54464;50.558;9.704;2024-03-29T04:54:40;7.40;99.90
27162;DHT22;54464;50.558;9.704;2024-03-29T04:57:05;7.40;99.90
27162;DHT22;54464;50.558;9.704;2024-03-29T04:59:35;7.30;99.90
27162;DHT22;54464;50.558;9.704;2024-03-29T05:02:01;7.20;99.90
27162;DHT22;54464;50.558;9.704;2024-03-29T05:04:27;7.10;99.90
27162;DHT22;54464;50.558;9.704;2024-03-29T05:06:57;7.10;99.90
27162;DHT22;54464;50.558;9.704;2024-03-29T05:09:24;7.10;99.90
27162;DHT22;54464;50.558;9.704;2024-03-29T05:11:50;7.10;99.90
27162;DHT22;54464;50.558;9.704;2024-03-29T05:14:17;7.20;99.90
27162;DHT22;54464;50.558;9.704;2024-03-29T05:16:46;7.30;99.90
27162;DHT22;54464;50.558;9.704;2024-03-29T05:19:12;7.20;99.90
27162;DHT22;54464;50.558;9.704;2024-03-29T05:21:38;7.20;99.90
27162;DHT22;54464;50.558;9.704;2024-03-29T05:24:05;7.10;99.90
27162;DHT22;54464;50.558;9.704;2024-03-29T05:26:30;7.00;99.90
27162;DHT22;54464;50.558;9.704;2024-03-29T05:28:56;6.90;99.90
27162;DHT22;54464;50.558;9.704;2024-03-29T05:31:24;6.90;99.90
27162;DHT22;54464;50.558;9.704;2024-03-29T05:33:50;7.00;99.90
27162;DHT22;54464;50.558;9.704;2024-03-29T05:36:15;6.90;99.90
27162;DHT22;54464;50.558;9.704;2024-03-29T05:38:41;7.00;99.90
27162;DHT22;54464;50.558;9.704;2024-03-29T05:41:06;6.90;99.90
27162;DHT22;54464;50.558;9.704;2024-03-29T05:43:32;7.00;99.90
27162;DHT22;54464;50.558;9.704;2024-03-29T05:45:58;7.00;99.90
27162;DHT22;54464;50.558;9.704;2024-03-29T05:48:25;7.00;99.90
27162;DHT22;54464;50.558;9.704;2024-03-29T05:50:51;7.10;99.90
27162;DHT22;54464;50.558;9.704;2024-03-29T05:53:16;7.30;99.90
27162;DHT22;54464;50.558;9.704;2024-03-29T05:55:42;7.40;99.90
27162;DHT22;54464;50.558;9.704;2024-03-29T05:58:08;7.40;99.90
27162;DHT22;54464;50.558;9.704;2024-03-29T06:00:33;7.50;99.90
27162;DHT22;54464;50.558;9.704;2024-03-29T06:03:00;7.60;99.90
27162;DHT22;54464;50.558;9.704;2024-03-29T06:05:28;7.60;99.90
27162;DHT22;54464;50.558;9.704;2024-03-29T06:07:54;7.60;99.90
27162;DHT22;54464;50.558;9.704;2024-03-29T06:10:19;7.50;99.90
27162;DHT22;54464;50.558;9.704;2024-03-29T06:12:45;7.40;99.90
27162;DHT22;54464;50.558;9.704;2024-03-29T06:15:10;7.30;99.90
27162;DHT22;54464;50.558;9.704;2024-03-29T06:17:54;7.20;99.90
27162;DHT22;54464;50.558;9.704;2024-03-29T06:20:20;7.10;99.90
27162;DHT22;54464;50.558;9.704;2024-03-29T06:22:46;7.00;99.90
27162;DHT22;54464;50.558;9.704;2024-03-29T06:25:11;7.00;99.90
27162;DHT22;54464;50.558;9.704;2024-03-29T06:27:37;7.00;99.90
27162;DHT22;54464;50.558;9.704;2024-03-29T06:30:04;6.90;99.90
27162;DHT22;54464;50.558;9.704;2024-03-29T06:32:31;6.90;99.90
27162;DHT22;54464;50.558;9.704;2024-03-29T06:34:57;6.80;99.90
27162;DHT22;54464;50.558;9.704;2024-03-29T06:37:22;6.80;99.90
27162;DHT22;54464;50.558;9.704;2024-03-29T06:39:51;6.80;99.90
27162;DHT22;54464;50.558;9.704;2024-03-29T06:42:16;6.80;99.90
27162;DHT22;54464;50.558;9.704;2024-03-29T06:44:42;6.70;99.90
27162;DHT22;54464;50.558;9.704;2024-03-29T06:47:08;6.70;99.90
27162;DHT22;54464;50.558;9.704;2024-03-29T06:49:34;6.70;99.90
27162;DHT22;54464;50.558;9.704;2024-03-29T06:52:00;6.70;99.90
27162;DHT22;54464;50.558;9.704;2024-03-29T06:54:27;6.60;99.90
27162;DHT22;54464;50.558;9.704;2024-03-29T06:56:56;6.60;99.90
27162;DHT22;54464;50.558;9.704;2024-03-29T06:59:22;6.60;99.90
27162;DHT22;54464;50.558;9.704;2024-03-29T07:01:48;6.60;99.90
27162;DHT22;54464;50.558;9.704;2024-03-29T07:04:23;6.60;99.90
27162;DHT22;54464;50.558;9.704;2024-03-29T07:06:49;6.60;99.90
27162;DHT22;54464;50.558;9.704;2024-03-29T07:09:22;6.60;99.90
27162;DHT22;54464;50.558;9.704;2024-03-29T07:11:49;6.70;99.90
27162;DHT22;54464;50.558;9.704;2024-03-29T07:14:15;6.70;99.90
27162;DHT22;54464;50.558;9.704;2024-03-29T07:16:41;6.70;99.90
27162;DHT22;54464;50.558;9.704;2024-03-29T07:19:07;6.80;99.90
27162;DHT22;54464;50.558;9.704;2024-03-29T07:21:32;6.70;99.90
27162;DHT22;54464;50.558;9.704;2024-03-29T07:23:58;6.70;99.90
27162;DHT22;54464;50.558;9.704;2024-03-29T07:26:23;6.70;99.90
27162;DHT22;54464;50.558;9.704;2024-03-29T07:28:49;6.70;99.90
27162;DHT22;54464;50.558;9.704;2024-03-29T07:31:15;6.70;99.90
27162;DHT22;54464;50.558;9.704;2024-03-29T07:33:40;6.70;99.90
27162;DHT22;54464;50.558;9.704;2024-03-29T07:36:06;6.70;99.90
27162;DHT22;54464;50.558;9.704;2024-03-29T07:38:33;6.70;99.90
27162;DHT22;54464;50.558;9.704;2024-03-29T07:40:58;6.80;99.90
27162;DHT22;54464;50.558;9.704;2024-03-29T07:43:24;6.80;99.90
27162;DHT22;54464;50.558;9.704;2024-03-29T07:45:50;6.80;99.90
27162;DHT22;54464;50.558;9.704;2024-03-29T07:48:17;6.80;99.90
27162;DHT22;54464;50.558;9.704;2024-03-29T07:50:44;6.90;99.90
27162;DHT22;54464;50.558;9.704;2024-03-29T07:53:10;7.00;99.90
27162;DHT22;54464;50.558;9.704;2024-03-29T07:55:38;7.10;99.90
27162;DHT22;54464;50.558;9.704;2024-03-29T07:58:04;7.00;99.90
27162;DHT22;54464;50.558;9.704;2024-03-29T08:00:33;7.10;99.90
27162;DHT22;54464;50.558;9.704;2024-03-29T08:02:59;7.20;99.90
27162;DHT22;54464;50.558;9.704;2024-03-29T08:05:26;7.40;99.90
27162;DHT22;54464;50.558;9.704;2024-03-29T08:07:51;7.40;99.90
27162;DHT22;54464;50.558;9.704;2024-03-29T08:10:17;7.40;99.90
27162;DHT22;54464;50.558;9.704;2024-03-29T08:12:43;7.40;99.90
27162;DHT22;54464;50.558;9.704;2024-03-29T08:15:08;7.40;99.90
27162;DHT22;54464;50.558;9.704;2024-03-29T08:17:35;7.40;99.90
27162;DHT22;54464;50.558;9.704;2024-03-29T08:20:00;7.50;99.90
27162;DHT22;54464;50.558;9.704;2024-03-29T08:22:26;7.50;99.90
27162;DHT22;54464;50.558;9.704;2024-03-29T08:24:54;7.50;99.90
27162;DHT22;54464;50.558;9.704;2024-03-29T08:27:19;7.60;99.90
27162;DHT22;54464;50.558;9.704;2024-03-29T08:29:45;7.60;99.90
27162;DHT22;54464;50.558;9.704;2024-03-29T08:32:10;7.70;99.90
27162;DHT22;54464;50.558;9.704;2024-03-29T08:34:36;7.70;99.90
27162;DHT22;54464;50.558;9.704;2024-03-29T08:37:02;7.80;99.90
27162;DHT22;54464;50.558;9.704;2024-03-29T08:39:31;7.80;99.90
27162;DHT22;54464;50.558;9.704;2024-03-29T08:41:58;7.70;99.90
27162;DHT22;54464;50.558;9.704;2024-03-29T08:44:24;7.80;99.90
27162;DHT22;54464;50.558;9.704;2024-03-29T08:46:50;7.80;99.90
27162;DHT22;54464;50.558;9.704;2024-03-29T08:49:16;7.90;99.90
27162;DHT22;54464;50.558;9.704;2024-03-29T08:51:42;7.90;99.90
27162;DHT22;54464;50.558;9.704;2024-03-29T08:54:08;7.90;99.90
27162;DHT22;54464;50.558;9.704;2024-03-29T08:56:33;7.90;99.90
27162;DHT22;54464;50.558;9.704;2024-03-29T08:59:05;7.90;99.90
27162;DHT22;54464;50.558;9.704;2024-03-29T09:01:45;7.90;99.90
27162;DHT22;54464;50.558;9.704;2024-03-29T09:04:11;7.90;99.90
27162;DHT22;54464;50.558;9.704;2024-03-29T09:06:39;8.00;99.90
27162;DHT22;54464;50.558;9.704;2024-03-29T09:09:05;8.00;99.90
27162;DHT22;54464;50.558;9.704;2024-03-29T09:11:31;8.00;99.90
27162;DHT22;54464;50.558;9.704;2024-03-29T09:13:57;8.00;99.90
27162;DHT22;54464;50.558;9.704;2024-03-29T09:16:24;8.00;99.90
27162;DHT22;54464;50.558;9.704;2024-03-29T09:18:51;7.90;99.90
27162;DHT22;54464;50.558;9.704;2024-03-29T09:21:17;7.90;99.90
27162;DHT22;54464;50.558;9.704;2024-03-29T09:23:42;7.90;99.90
27162;DHT22;54464;50.558;9.704;2024-03-29T09:26:08;7.90;99.90
27162;DHT22;54464;50.558;9.704;2024-03-29T09:28:34;8.00;99.90
27162;DHT22;54464;50.558;9.704;2024-03-29T09:31:01;8.00;99.90
27162;DHT22;54464;50.558;9.704;2024-03-29T09:33:27;8.10;99.90
27162;DHT22;54464;50.558;9.704;2024-03-29T09:35:54;8.10;99.90
27162;DHT22;54464;50.558;9.704;2024-03-29T09:38:22;8.20;99.90
27162;DHT22;54464;50.558;9.704;2024-03-29T09:41:13;8.30;99.90
27162;DHT22;54464;50.558;9.704;2024-03-29T09:43:42;8.40;99.90
27162;DHT22;54464;50.558;9.704;2024-03-29T09:46:10;8.40;99.90
27162;DHT22;54464;50.558;9.704;2024-03-29T09:48:37;8.40;99.90
27162;DHT22;54464;50.558;9.704;2024-03-29T09:51:05;8.30;99.90
27162;DHT22;54464;50.558;9.704;2024-03-29T09:53:37;8.30;99.90
27162;DHT22;54464;50.558;9.704;2024-03-29T09:56:06;8.30;99.90
27162;DHT22;54464;50.558;9.704;2024-03-29T09:58:33;8.30;99.90
27162;DHT22;54464;50.558;9.704;2024-03-29T10:00:59;8.20;99.90
27162;DHT22;54464;50.558;9.704;2024-03-29T10:03:25;8.30;99.90
27162;DHT22;54464;50.558;9.704;2024-03-29T10:05:57;8.30;99.90
27162;DHT22;54464;50.558;9.704;2024-03-29T10:08:28;8.20;99.90
27162;DHT22;54464;50.558;9.704;2024-03-29T10:10:56;8.30;99.90
27162;DHT22;54464;50.558;9.704;2024-03-29T10:13:21;8.30;99.90
27162;DHT22;54464;50.558;9.704;2024-03-29T10:15:49;8.30;99.90
27162;DHT22;54464;50.558;9.704;2024-03-29T10:18:17;8.20;99.90
27162;DHT22;54464;50.558;9.704;2024-03-29T10:20:46;8.10;99.90
27162;DHT22;54464;50.558;9.704;2024-03-29T10:23:12;8.20;99.90
27162;DHT22;54464;50.558;9.704;2024-03-29T10:25:38;8.30;99.90
27162;DHT22;54464;50.558;9.704;2024-03-29T10:28:04;8.20;99.90
27162;DHT22;54464;50.558;9.704;2024-03-29T10:30:30;8.30;99.90
27162;DHT22;54464;50.558;9.704;2024-03-29T10:32:56;8.30;99.90
27162;DHT22;54464;50.558;9.704;2024-03-29T10:35:24;8.40;99.90
27162;DHT22;54464;50.558;9.704;2024-03-29T10:37:52;8.30;99.90
27162;DHT22;54464;50.558;9.704;2024-03-29T10:40:21;8.30;99.90
27162;DHT22;54464;50.558;9.704;2024-03-29T10:42:48;8.30;99.90
27162;DHT22;54464;50.558;9.704;2024-03-29T10:45:14;8.30;99.90
27162;DHT22;54464;50.558;9.704;2024-03-29T10:47:41;8.30;99.90
27162;DHT22;54464;50.558;9.704;2024-03-29T10:50:14;8.30;99.90
27162;DHT22;54464;50.558;9.704;2024-03-29T10:52:40;8.20;99.90
27162;DHT22;54464;50.558;9.704;2024-03-29T10:55:12;8.30;99.90
27162;DHT22;54464;50.558;9.704;2024-03-29T10:57:42;8.30;99.90
27162;DHT22;54464;50.558;9.704;2024-03-29T11:00:15;8.40;99.90
27162;DHT22;54464;50.558;9.704;2024-03-29T11:02:57;8.40;99.90
27162;DHT22;54464;50.558;9.704;2024-03-29T11:05:30;8.40;99.90
27162;DHT22;54464;50.558;9.704;2024-03-29T11:07:56;8.40;99.90
27162;DHT22;54464;50.558;9.704;2024-03-29T11:12:58;8.30;99.90
27162;DHT22;54464;50.558;9.704;2024-03-29T11:15:30;8.40;99.90
27162;DHT22;54464;50.558;9.704;2024-03-29T11:17:57;8.40;99.90
27162;DHT22;54464;50.558;9.704;2024-03-29T11:20:27;8.50;99.90
27162;DHT22;54464;50.558;9.704;2024-03-29T11:23:08;8.60;99.90
27162;DHT22;54464;50.558;9.704;2024-03-29T11:25:48;8.70;99.90
27162;DHT22;54464;50.558;9.704;2024-03-29T11:28:15;8.90;99.90
27162;DHT22;54464;50.558;9.704;2024-03-29T11:30:48;8.90;99.90
27162;DHT22;54464;50.558;9.704;2024-03-29T11:33:27;8.90;99.90
27162;DHT22;54464;50.558;9.704;2024-03-29T11:35:54;8.70;99.90
27162;DHT22;54464;50.558;9.704;2024-03-29T11:38:19;8.80;99.90
27162;DHT22;54464;50.558;9.704;2024-03-29T11:41:09;8.80;99.90
27162;DHT22;54464;50.558;9.704;2024-03-29T11:43:36;8.90;99.90
27162;DHT22;54464;50.558;9.704;2024-03-29T11:46:06;8.90;99.90
27162;DHT22;54464;50.558;9.704;2024-03-29T11:48:35;9.00;99.90
27162;DHT22;54464;50.558;9.704;2024-03-29T11:51:13;9.00;99.90
27162;DHT22;54464;50.558;9.704;2024-03-29T11:53:43;9.10;99.90
27162;DHT22;54464;50.558;9.704;2024-03-29T11:56:10;9.10;99.90
27162;DHT22;54464;50.558;9.704;2024-03-29T11:58:40;9.10;99.90
27162;DHT22;54464;50.558;9.704;2024-03-29T12:01:06;9.00;99.90
27162;DHT22;54464;50.558;9.704;2024-03-29T12:03:38;9.00;99.90
27162;DHT22;54464;50.558;9.704;2024-03-29T12:06:04;9.00;99.90
27162;DHT22;54464;50.558;9.704;2024-03-29T12:08:38;9.00;99.90
27162;DHT22;54464;50.558;9.704;2024-03-29T12:11:05;9.10;99.90
27162;DHT22;54464;50.558;9.704;2024-03-29T12:13:31;9.10;99.90
27162;DHT22;54464;50.558;9.704;2024-03-29T12:15:57;9.10;99.90
27162;DHT22;54464;50.558;9.704;2024-03-29T12:18:25;9.10;99.90
27162;DHT22;54464;50.558;9.704;2024-03-29T12:20:52;9.10;99.90
27162;DHT22;54464;50.558;9.704;2024-03-29T12:23:21;9.10;99.90
27162;DHT22;54464;50.558;9.704;2024-03-29T12:25:51;9.10;99.90
27162;DHT22;54464;50.558;9.704;2024-03-29T12:28:17;9.20;99.90
27162;DHT22;54464;50.558;9.704;2024-03-29T12:30:45;9.30;99.90
27162;DHT22;54464;50.558;9.704;2024-03-29T12:33:13;9.30;99.90
27162;DHT22;54464;50.558;9.704;2024-03-29T12:35:45;9.30;99.90
27162;DHT22;54464;50.558;9.704;2024-03-29T12:38:15;9.20;99.90
27162;DHT22;54464;50.558;9.704;2024-03-29T12:40:45;9.20;99.90
27162;DHT22;54464;50.558;9.704;2024-03-29T12:43:14;9.20;99.90
27162;DHT22;54464;50.558;9.704;2024-03-29T12:45:42;9.10;99.90
27162;DHT22;54464;50.558;9.704;2024-03-29T12:48:15;9.10;99.90
27162;DHT22;54464;50.558;9.704;2024-03-29T12:50:42;9.10;99.90
27162;DHT22;54464;50.558;9.704;2024-03-29T12:53:09;9.10;99.90
27162;DHT22;54464;50.558;9.704;2024-03-29T12:55:36;9.10;99.90
27162;DHT22;54464;50.558;9.704;2024-03-29T12:58:07;9.10;99.90
27162;DHT22;54464;50.558;9.704;2024-03-29T13:00:36;9.00;99.90
27162;DHT22;54464;50.558;9.704;2024-03-29T13:03:02;9.00;99.90
27162;DHT22;54464;50.558;9.704;2024-03-29T13:05:29;9.00;99.90
27162;DHT22;54464;50.558;9.704;2024-03-29T13:08:03;9.00;99.90
27162;DHT22;54464;50.558;9.704;2024-03-29T13:10:29;9.00;99.90
27162;DHT22;54464;50.558;9.704;2024-03-29T13:12:55;9.10;99.90
27162;DHT22;54464;50.558;9.704;2024-03-29T13:15:41;9.10;99.90
27162;DHT22;54464;50.558;9.704;2024-03-29T13:18:08;9.10;99.90
27162;DHT22;54464;50.558;9.704;2024-03-29T13:20:36;9.10;99.90
27162;DHT22;54464;50.558;9.704;2024-03-29T13:23:06;9.10;99.90
27162;DHT22;54464;50.558;9.704;2024-03-29T13:25:32;9.10;99.90
27162;DHT22;54464;50.558;9.704;2024-03-29T13:27:57;9.20;99.90
27162;DHT22;54464;50.558;9.704;2024-03-29T13:30:26;9.10;99.90
27162;DHT22;54464;50.558;9.704;2024-03-29T13:32:56;9.10;99.90
27162;DHT22;54464;50.558;9.704;2024-03-29T13:35:22;9.20;99.90
27162;DHT22;54464;50.558;9.704;2024-03-29T13:37:49;9.10;99.90
27162;DHT22;54464;50.558;9.704;2024-03-29T13:40:16;9.10;99.90
27162;DHT22;54464;50.558;9.704;2024-03-29T13:42:42;9.10;99.90
27162;DHT22;54464;50.558;9.704;2024-03-29T13:45:08;9.10;99.90
27162;DHT22;54464;50.558;9.704;2024-03-29T13:47:38;9.20;99.90
27162;DHT22;54464;50.558;9.704;2024-03-29T13:50:11;9.10;99.90
27162;DHT22;54464;50.558;9.704;2024-03-29T13:52:43;9.10;99.90
27162;DHT22;54464;50.558;9.704;2024-03-29T13:55:11;9.10;99.90
27162;DHT22;54464;50.558;9.704;2024-03-29T13:57:40;9.20;99.90
27162;DHT22;54464;50.558;9.704;2024-03-29T14:00:18;9.20;99.90
27162;DHT22;54464;50.558;9.704;2024-03-29T14:02:46;9.30;99.90
27162;DHT22;54464;50.558;9.704;2024-03-29T14:05:16;9.30;99.90
27162;DHT22;54464;50.558;9.704;2024-03-29T14:07:45;9.40;99.90
27162;DHT22;54464;50.558;9.704;2024-03-29T14:10:11;9.40;99.90
27162;DHT22;54464;50.558;9.704;2024-03-29T14:12:37;9.40;99.90
27162;DHT22;54464;50.558;9.704;2024-03-29T14:15:03;9.40;99.90
27162;DHT22;54464;50.558;9.704;2024-03-29T14:17:31;9.40;99.90
27162;DHT22;54464;50.558;9.704;2024-03-29T14:19:56;9.50;99.90
27162;DHT22;54464;50.558;9.704;2024-03-29T14:22:25;9.50;99.90
27162;DHT22;54464;50.558;9.704;2024-03-29T14:24:56;9.50;99.90
27162;DHT22;54464;50.558;9.704;2024-03-29T14:27:22;9.50;99.90
27162;DHT22;54464;50.558;9.704;2024-03-29T14:29:50;9.50;99.90
27162;DHT22;54464;50.558;9.704;2024-03-29T14:32:20;9.50;99.90
27162;DHT22;54464;50.558;9.704;2024-03-29T14:34:46;9.60;99.90
27162;DHT22;54464;50.558;9.704;2024-03-29T14:37:21;9.60;99.90
27162;DHT22;54464;50.558;9.704;2024-03-29T14:39:52;9.60;99.90
27162;DHT22;54464;50.558;9.704;2024-03-29T14:42:22;9.60;99.90
27162;DHT22;54464;50.558;9.704;2024-03-29T14:44:48;9.60;99.90
27162;DHT22;54464;50.558;9.704;2024-03-29T14:47:14;9.60;99.90
27162;DHT22;54464;50.558;9.704;2024-03-29T14:49:42;9.60;99.90
27162;DHT22;54464;50.558;9.704;2024-03-29T14:52:08;9.60;99.90
27162;DHT22;54464;50.558;9.704;2024-03-29T14:54:33;9.60;99.90
27162;DHT22;54464;50.558;9.704;2024-03-29T14:57:01;9.60;99.90
27162;DHT22;54464;50.558;9.704;2024-03-29T14:59:29;9.70;99.90
27162;DHT22;54464;50.558;9.704;2024-03-29T15:01:56;9.70;99.90
27162;DHT22;54464;50.558;9.704;2024-03-29T15:04:27;9.60;99.90
27162;DHT22;54464;50.558;9.704;2024-03-29T15:06:53;9.60;99.90
27162;DHT22;54464;50.558;9.704;2024-03-29T15:09:22;9.70;99.90
27162;DHT22;54464;50.558;9.704;2024-03-29T15:11:48;9.70;99.90
27162;DHT22;54464;50.558;9.704;2024-03-29T15:14:14;9.70;99.90
27162;DHT22;54464;50.558;9.704;2024-03-29T15:16:41;9.70;99.90
27162;DHT22;54464;50.558;9.704;2024-03-29T15:19:12;9.60;99.90
27162;DHT22;54464;50.558;9.704;2024-03-29T15:21:40;9.70;99.90
27162;DHT22;54464;50.558;9.704;2024-03-29T15:24:08;9.70;99.90
27162;DHT22;54464;50.558;9.704;2024-03-29T15:26:34;9.70;99.90
27162;DHT22;54464;50.558;9.704;2024-03-29T15:29:03;9.60;99.90
27162;DHT22;54464;50.558;9.704;2024-03-29T15:31:42;9.60;99.90
27162;DHT22;54464;50.558;9.704;2024-03-29T15:34:12;9.60;99.90
27162;DHT22;54464;50.558;9.704;2024-03-29T15:36:39;9.70;99.90
27162;DHT22;54464;50.558;9.704;2024-03-29T15:39:05;9.70;99.90
27162;DHT22;54464;50.558;9.704;2024-03-29T15:41:33;9.70;99.90
27162;DHT22;54464;50.558;9.704;2024-03-29T15:44:00;9.70;99.90
27162;DHT22;54464;50.558;9.704;2024-03-29T15:46:27;9.70;99.90
27162;DHT22;54464;50.558;9.704;2024-03-29T15:48:53;9.80;99.90